sensor_id;sensor_type;location;lat;lon;timestamp;temperature;humidity
65034;DHT22;51601;51.356;12.458;2022-09-11T00:02:48;16.20;90.80
65034;DHT22;51601;51.356;12.458;2022-09-11T00:07:02;16.20;90.90
65034;DHT22;51601;51.356;12.458;2022-09-11T00:11:17;16.30;90.90
65034;DHT22;51601;51.356;12.458;2022-09-11T00:15:36;16.30;91.00
65034;DHT22;51601;51.356;12.458;2022-09-11T00:19:52;16.30;91.00
65034;DHT22;51601;51.356;12.458;2022-09-11T00:24:07;16.30;91.00
65034;DHT22;51601;51.356;12.458;2022-09-11T00:28:23;16.30;91.10
65034;DHT22;51601;51.356;12.458;2022-09-11T00:32:37;16.40;91.20
65034;DHT22;51601;51.356;12.458;2022-09-11T00:36:52;16.40;91.10
65034;DHT22;51601;51.356;12.458;2022-09-11T00:41:13;16.50;91.00
65034;DHT22;51601;51.356;12.458;2022-09-11T00:45:28;16.50;90.90
65034;DHT22;51601;51.356;12.458;2022-09-11T00:49:47;16.50;91.10
65034;DHT22;51601;51.356;12.458;2022-09-11T00:54:04;16.50;90.80
65034;DHT22;51601;51.356;12.458;2022-09-11T00:58:23;16.50;90.80
65034;DHT22;51601;51.356;12.458;2022-09-11T01:02:40;16.40;90.80
65034;DHT22;51601;51.356;12.458;2022-09-11T01:06:56;16.40;90.80
65034;DHT22;51601;51.356;12.458;2022-09-11T01:11:26;16.40;90.80
65034;DHT22;51601;51.356;12.458;2022-09-11T01:15:48;16.40;91.00
65034;DHT22;51601;51.356;12.458;2022-09-11T01:20:21;16.40;91.00
65034;DHT22;51601;51.356;12.458;2022-09-11T01:24:52;16.40;91.00
65034;DHT22;51601;51.356;12.458;2022-09-11T01:29:16;16.40;91.00
65034;DHT22;51601;51.356;12.458;2022-09-11T01:33:35;16.30;90.90
65034;DHT22;51601;51.356;12.458;2022-09-11T01:37:58;16.30;90.90
65034;DHT22;51601;51.356;12.458;2022-09-11T01:42:18;16.20;90.90
65034;DHT22;51601;51.356;12.458;2022-09-11T01:46:39;16.20;91.00
65034;DHT22;51601;51.356;12.458;2022-09-11T01:50:58;16.20;91.10
65034;DHT22;51601;51.356;12.458;2022-09-11T01:55:17;16.10;91.10
65034;DHT22;51601;51.356;12.458;2022-09-11T01:59:37;16.00;91.10
65034;DHT22;51601;51.356;12.458;2022-09-11T02:03:57;16.00;91.10
65034;DHT22;51601;51.356;12.458;2022-09-11T02:08:16;15.90;91.20
65034;DHT22;51601;51.356;12.458;2022-09-11T02:12:38;15.80;91.40
65034;DHT22;51601;51.356;12.458;2022-09-11T02:17:01;15.70;91.50
65034;DHT22;51601;51.356;12.458;2022-09-11T02:21:22;15.70;91.60
65034;DHT22;51601;51.356;12.458;2022-09-11T02:25:37;15.60;91.50
65034;DHT22;51601;51.356;12.458;2022-09-11T02:29:52;15.50;91.60
65034;DHT22;51601;51.356;12.458;2022-09-11T02:34:07;15.50;91.70
65034;DHT22;51601;51.356;12.458;2022-09-11T02:38:27;15.40;91.80
65034;DHT22;51601;51.356;12.458;2022-09-11T02:47:36;15.20;92.10
65034;DHT22;51601;51.356;12.458;2022-09-11T02:52:01;15.10;92.20
65034;DHT22;51601;51.356;12.458;2022-09-11T02:56:25;15.00;92.30
65034;DHT22;51601;51.356;12.458;2022-09-11T03:00:42;15.00;92.50
65034;DHT22;51601;51.356;12.458;2022-09-11T03:04:58;14.90;92.60
65034;DHT22;51601;51.356;12.458;2022-09-11T03:09:13;14.90;92.80
65034;DHT22;51601;51.356;12.458;2022-09-11T03:13:29;14.80;92.90
65034;DHT22;51601;51.356;12.458;2022-09-11T03:17:45;14.80;92.90
65034;DHT22;51601;51.356;12.458;2022-09-11T03:21:59;14.80;93.00
65034;DHT22;51601;51.356;12.458;2022-09-11T03:26:14;14.70;93.10
65034;DHT22;51601;51.356;12.458;2022-09-11T03:30:33;14.60;93.20
65034;DHT22;51601;51.356;12.458;2022-09-11T03:34:48;14.60;93.20
65034;DHT22;51601;51.356;12.458;2022-09-11T03:39:02;14.60;93.30
65034;DHT22;51601;51.356;12.458;2022-09-11T03:43:16;14.50;93.50
65034;DHT22;51601;51.356;12.458;2022-09-11T03:47:32;14.50;93.50
65034;DHT22;51601;51.356;12.458;2022-09-11T03:51:46;14.50;93.60
65034;DHT22;51601;51.356;12.458;2022-09-11T03:56:00;14.50;94.00
65034;DHT22;51601;51.356;12.458;2022-09-11T04:00:21;14.40;93.80
65034;DHT22;51601;51.356;12.458;2022-09-11T04:04:40;14.40;93.90
65034;DHT22;51601;51.356;12.458;2022-09-11T04:08:55;14.40;93.90
65034;DHT22;51601;51.356;12.458;2022-09-11T04:13:09;14.40;94.00
65034;DHT22;51601;51.356;12.458;2022-09-11T04:17:23;14.40;94.10
65034;DHT22;51601;51.356;12.458;2022-09-11T04:21:40;14.50;94.20
65034;DHT22;51601;51.356;12.458;2022-09-11T04:25:54;14.60;94.30
65034;DHT22;51601;51.356;12.458;2022-09-11T04:30:09;14.70;94.40
65034;DHT22;51601;51.356;12.458;2022-09-11T04:34:22;14.80;94.40
65034;DHT22;51601;51.356;12.458;2022-09-11T04:38:39;14.90;94.20
65034;DHT22;51601;51.356;12.458;2022-09-11T04:42:56;15.00;94.00
65034;DHT22;51601;51.356;12.458;2022-09-11T04:47:10;14.90;93.90
65034;DHT22;51601;51.356;12.458;2022-09-11T04:51:26;15.00;94.00
65034;DHT22;51601;51.356;12.458;2022-09-11T04:55:43;15.10;94.00
65034;DHT22;51601;51.356;12.458;2022-09-11T04:59:59;15.10;94.10
65034;DHT22;51601;51.356;12.458;2022-09-11T05:04:15;15.30;94.20
65034;DHT22;51601;51.356;12.458;2022-09-11T05:08:34;15.50;93.70
65034;DHT22;51601;51.356;12.458;2022-09-11T05:12:51;15.60;93.30
65034;DHT22;51601;51.356;12.458;2022-09-11T05:17:05;15.60;93.20
65034;DHT22;51601;51.356;12.458;2022-09-11T05:21:25;15.70;93.20
65034;DHT22;51601;51.356;12.458;2022-09-11T05:25:39;15.70;93.30
65034;DHT22;51601;51.356;12.458;2022-09-11T05:29:54;15.90;94.00
65034;DHT22;51601;51.356;12.458;2022-09-11T05:34:08;16.50;93.80
65034;DHT22;51601;51.356;12.458;2022-09-11T05:38:22;16.90;92.30
65034;DHT22;51601;51.356;12.458;2022-09-11T05:42:40;17.00;92.20
65034;DHT22;51601;51.356;12.458;2022-09-11T05:46:55;17.30;91.30
65034;DHT22;51601;51.356;12.458;2022-09-11T05:51:11;17.30;90.40
65034;DHT22;51601;51.356;12.458;2022-09-11T05:55:26;17.10;90.40
65034;DHT22;51601;51.356;12.458;2022-09-11T05:59:40;17.10;90.60
65034;DHT22;51601;51.356;12.458;2022-09-11T06:03:55;17.10;91.10
65034;DHT22;51601;51.356;12.458;2022-09-11T06:08:11;17.50;91.90
65034;DHT22;51601;51.356;12.458;2022-09-11T06:12:25;18.40;92.20
65034;DHT22;51601;51.356;12.458;2022-09-11T06:16:42;19.40;90.00
65034;DHT22;51601;51.356;12.458;2022-09-11T06:21:04;19.80;83.90
65034;DHT22;51601;51.356;12.458;2022-09-11T06:25:25;19.70;80.00
65034;DHT22;51601;51.356;12.458;2022-09-11T06:29:39;19.20;78.50
65034;DHT22;51601;51.356;12.458;2022-09-11T06:33:53;18.70;79.00
65034;DHT22;51601;51.356;12.458;2022-09-11T06:38:09;18.20;80.00
65034;DHT22;51601;51.356;12.458;2022-09-11T06:42:23;17.80;81.60
65034;DHT22;51601;51.356;12.458;2022-09-11T06:46:37;17.50;83.00
65034;DHT22;51601;51.356;12.458;2022-09-11T06:50:54;17.30;84.10
65034;DHT22;51601;51.356;12.458;2022-09-11T06:55:11;17.20;86.00
65034;DHT22;51601;51.356;12.458;2022-09-11T06:59:32;17.10;86.20
65034;DHT22;51601;51.356;12.458;2022-09-11T07:03:48;17.10;86.50
65034;DHT22;51601;51.356;12.458;2022-09-11T07:08:04;17.00;86.50
65034;DHT22;51601;51.356;12.458;2022-09-11T07:12:22;17.00;87.00
65034;DHT22;51601;51.356;12.458;2022-09-11T07:16:36;16.90;87.40
65034;DHT22;51601;51.356;12.458;2022-09-11T07:20:54;17.00;87.90
65034;DHT22;51601;51.356;12.458;2022-09-11T07:25:08;17.00;88.00
65034;DHT22;51601;51.356;12.458;2022-09-11T07:29:28;17.00;87.70
65034;DHT22;51601;51.356;12.458;2022-09-11T07:33:45;17.00;87.90
65034;DHT22;51601;51.356;12.458;2022-09-11T07:38:00;17.20;88.10
65034;DHT22;51601;51.356;12.458;2022-09-11T07:42:17;17.30;87.40
65034;DHT22;51601;51.356;12.458;2022-09-11T07:46:33;17.40;87.00
65034;DHT22;51601;51.356;12.458;2022-09-11T07:50:55;17.50;86.60
65034;DHT22;51601;51.356;12.458;2022-09-11T07:55:10;17.70;86.40
65034;DHT22;51601;51.356;12.458;2022-09-11T07:59:25;17.70;85.80
65034;DHT22;51601;51.356;12.458;2022-09-11T08:03:41;17.80;85.20
65034;DHT22;51601;51.356;12.458;2022-09-11T08:07:59;17.80;85.10
65034;DHT22;51601;51.356;12.458;2022-09-11T08:12:15;17.90;85.10
65034;DHT22;51601;51.356;12.458;2022-09-11T08:16:33;17.80;84.80
65034;DHT22;51601;51.356;12.458;2022-09-11T08:20:50;17.90;84.90
65034;DHT22;51601;51.356;12.458;2022-09-11T08:25:04;17.90;84.60
65034;DHT22;51601;51.356;12.458;2022-09-11T08:29:18;17.90;84.80
65034;DHT22;51601;51.356;12.458;2022-09-11T08:33:33;18.00;84.50
65034;DHT22;51601;51.356;12.458;2022-09-11T08:37:49;18.00;84.60
65034;DHT22;51601;51.356;12.458;2022-09-11T08:42:11;18.00;84.30
65034;DHT22;51601;51.356;12.458;2022-09-11T08:46:30;18.10;84.20
65034;DHT22;51601;51.356;12.458;2022-09-11T08:50:47;18.10;83.90
65034;DHT22;51601;51.356;12.458;2022-09-11T08:55:03;18.20;84.00
65034;DHT22;51601;51.356;12.458;2022-09-11T08:59:28;18.20;83.40
65034;DHT22;51601;51.356;12.458;2022-09-11T09:03:54;18.30;82.80
65034;DHT22;51601;51.356;12.458;2022-09-11T09:08:30;18.20;82.40
65034;DHT22;51601;51.356;12.458;2022-09-11T09:12:58;18.20;82.40
65034;DHT22;51601;51.356;12.458;2022-09-11T09:17:19;18.20;82.30
65034;DHT22;51601;51.356;12.458;2022-09-11T09:21:40;18.20;82.20
65034;DHT22;51601;51.356;12.458;2022-09-11T09:25:56;18.20;82.20
65034;DHT22;51601;51.356;12.458;2022-09-11T09:30:15;18.20;82.00
65034;DHT22;51601;51.356;12.458;2022-09-11T09:34:31;18.20;81.80
65034;DHT22;51601;51.356;12.458;2022-09-11T09:38:47;18.30;81.60
65034;DHT22;51601;51.356;12.458;2022-09-11T09:43:26;18.20;81.70
65034;DHT22;51601;51.356;12.458;2022-09-11T09:47:53;18.20;81.90
65034;DHT22;51601;51.356;12.458;2022-09-11T09:52:15;18.20;82.10
65034;DHT22;51601;51.356;12.458;2022-09-11T09:56:30;18.20;82.20
65034;DHT22;51601;51.356;12.458;2022-09-11T10:00:46;18.20;82.00
65034;DHT22;51601;51.356;12.458;2022-09-11T10:05:15;18.20;82.00
65034;DHT22;51601;51.356;12.458;2022-09-11T10:09:29;18.20;82.40
65034;DHT22;51601;51.356;12.458;2022-09-11T10:13:52;18.20;82.70
65034;DHT22;51601;51.356;12.458;2022-09-11T10:18:31;18.30;82.50
65034;DHT22;51601;51.356;12.458;2022-09-11T10:22:47;18.30;82.20
65034;DHT22;51601;51.356;12.458;2022-09-11T10:27:02;18.40;82.10
65034;DHT22;51601;51.356;12.458;2022-09-11T10:31:16;18.50;82.00
65034;DHT22;51601;51.356;12.458;2022-09-11T10:35:33;18.60;81.30
65034;DHT22;51601;51.356;12.458;2022-09-11T10:39:49;18.60;80.30
65034;DHT22;51601;51.356;12.458;2022-09-11T10:44:11;18.50;79.70
65034;DHT22;51601;51.356;12.458;2022-09-11T10:48:27;18.40;80.00
65034;DHT22;51601;51.356;12.458;2022-09-11T10:52:48;18.40;80.60
65034;DHT22;51601;51.356;12.458;2022-09-11T10:57:13;18.30;81.00
65034;DHT22;51601;51.356;12.458;2022-09-11T11:01:29;18.20;81.50
65034;DHT22;51601;51.356;12.458;2022-09-11T11:05:50;18.10;82.90
65034;DHT22;51601;51.356;12.458;2022-09-11T11:10:16;18.00;84.70
65034;DHT22;51601;51.356;12.458;2022-09-11T11:15:04;17.80;86.00
65034;DHT22;51601;51.356;12.458;2022-09-11T11:19:31;17.70;87.00
65034;DHT22;51601;51.356;12.458;2022-09-11T11:24:01;17.50;88.00
65034;DHT22;51601;51.356;12.458;2022-09-11T11:28:26;17.30;89.30
65034;DHT22;51601;51.356;12.458;2022-09-11T11:32:56;17.10;90.30
65034;DHT22;51601;51.356;12.458;2022-09-11T11:37:15;17.10;91.00
65034;DHT22;51601;51.356;12.458;2022-09-11T11:41:37;17.10;91.50
65034;DHT22;51601;51.356;12.458;2022-09-11T11:45:58;17.00;91.70
65034;DHT22;51601;51.356;12.458;2022-09-11T11:50:23;17.00;92.00
65034;DHT22;51601;51.356;12.458;2022-09-11T11:54:47;17.10;92.20
65034;DHT22;51601;51.356;12.458;2022-09-11T11:59:09;17.20;92.30
65034;DHT22;51601;51.356;12.458;2022-09-11T12:03:28;17.20;92.30
65034;DHT22;51601;51.356;12.458;2022-09-11T12:07:47;17.30;92.20
65034;DHT22;51601;51.356;12.458;2022-09-11T12:12:04;17.30;92.40
65034;DHT22;51601;51.356;12.458;2022-09-11T12:16:23;17.40;92.60
65034;DHT22;51601;51.356;12.458;2022-09-11T12:20:40;17.60;92.80
65034;DHT22;51601;51.356;12.458;2022-09-11T12:24:56;17.90;92.80
65034;DHT22;51601;51.356;12.458;2022-09-11T12:34:14;18.70;91.60
65034;DHT22;51601;51.356;12.458;2022-09-11T12:38:33;19.20;90.70
65034;DHT22;51601;51.356;12.458;2022-09-11T12:43:23;19.50;90.00
65034;DHT22;51601;51.356;12.458;2022-09-11T12:47:39;19.80;88.10
65034;DHT22;51601;51.356;12.458;2022-09-11T12:51:55;19.90;86.60
65034;DHT22;51601;51.356;12.458;2022-09-11T12:56:15;20.00;84.60
65034;DHT22;51601;51.356;12.458;2022-09-11T13:00:36;19.90;83.40
65034;DHT22;51601;51.356;12.458;2022-09-11T13:04:51;20.00;81.90
65034;DHT22;51601;51.356;12.458;2022-09-11T13:09:06;20.00;81.60
65034;DHT22;51601;51.356;12.458;2022-09-11T13:13:42;20.10;81.20
65034;DHT22;51601;51.356;12.458;2022-09-11T13:17:57;20.10;80.10
65034;DHT22;51601;51.356;12.458;2022-09-11T13:22:23;20.20;79.50
65034;DHT22;51601;51.356;12.458;2022-09-11T13:26:40;20.30;78.40
65034;DHT22;51601;51.356;12.458;2022-09-11T13:30:56;20.50;77.80
65034;DHT22;51601;51.356;12.458;2022-09-11T13:35:14;20.60;75.20
65034;DHT22;51601;51.356;12.458;2022-09-11T13:39:39;20.60;74.40
65034;DHT22;51601;51.356;12.458;2022-09-11T13:43:55;20.60;74.00
65034;DHT22;51601;51.356;12.458;2022-09-11T13:48:19;20.70;73.00
65034;DHT22;51601;51.356;12.458;2022-09-11T13:52:35;20.80;72.30
65034;DHT22;51601;51.356;12.458;2022-09-11T13:57:09;20.90;72.00
65034;DHT22;51601;51.356;12.458;2022-09-11T14:01:24;20.80;71.10
65034;DHT22;51601;51.356;12.458;2022-09-11T14:05:47;20.80;70.80
65034;DHT22;51601;51.356;12.458;2022-09-11T14:10:05;20.60;70.60
65034;DHT22;51601;51.356;12.458;2022-09-11T14:14:22;20.50;70.70
65034;DHT22;51601;51.356;12.458;2022-09-11T14:18:40;20.50;71.00
65034;DHT22;51601;51.356;12.458;2022-09-11T14:23:00;20.40;70.70
65034;DHT22;51601;51.356;12.458;2022-09-11T14:27:35;20.30;70.70
65034;DHT22;51601;51.356;12.458;2022-09-11T14:31:51;20.40;70.80
65034;DHT22;51601;51.356;12.458;2022-09-11T14:36:11;20.40;69.90
65034;DHT22;51601;51.356;12.458;2022-09-11T14:40:26;20.40;69.00
65034;DHT22;51601;51.356;12.458;2022-09-11T14:44:41;20.30;69.00
65034;DHT22;51601;51.356;12.458;2022-09-11T14:48:55;20.30;68.70
65034;DHT22;51601;51.356;12.458;2022-09-11T14:53:14;20.40;68.50
65034;DHT22;51601;51.356;12.458;2022-09-11T14:57:32;20.40;67.90
65034;DHT22;51601;51.356;12.458;2022-09-11T15:01:48;20.50;67.70
65034;DHT22;51601;51.356;12.458;2022-09-11T15:06:03;20.60;67.90
65034;DHT22;51601;51.356;12.458;2022-09-11T15:10:17;20.70;67.40
65034;DHT22;51601;51.356;12.458;2022-09-11T15:14:31;20.80;66.80
65034;DHT22;51601;51.356;12.458;2022-09-11T15:19:07;20.90;66.50
65034;DHT22;51601;51.356;12.458;2022-09-11T15:23:20;21.10;65.70
65034;DHT22;51601;51.356;12.458;2022-09-11T15:27:35;20.90;64.80
65034;DHT22;51601;51.356;12.458;2022-09-11T15:31:49;20.70;65.10
65034;DHT22;51601;51.356;12.458;2022-09-11T15:36:04;20.50;65.50
65034;DHT22;51601;51.356;12.458;2022-09-11T15:40:18;20.50;66.00
65034;DHT22;51601;51.356;12.458;2022-09-11T15:44:34;20.40;66.10
65034;DHT22;51601;51.356;12.458;2022-09-11T15:48:48;20.20;66.30
65034;DHT22;51601;51.356;12.458;2022-09-11T15:53:03;20.20;66.60
65034;DHT22;51601;51.356;12.458;2022-09-11T15:57:18;20.20;66.90
65034;DHT22;51601;51.356;12.458;2022-09-11T16:01:33;20.40;67.20
65034;DHT22;51601;51.356;12.458;2022-09-11T16:05:48;20.60;66.70
65034;DHT22;51601;51.356;12.458;2022-09-11T16:10:04;20.60;66.50
65034;DHT22;51601;51.356;12.458;2022-09-11T16:14:20;20.60;66.40
65034;DHT22;51601;51.356;12.458;2022-09-11T16:18:36;20.50;66.40
65034;DHT22;51601;51.356;12.458;2022-09-11T16:22:50;20.40;66.50
65034;DHT22;51601;51.356;12.458;2022-09-11T16:27:06;20.40;66.50
65034;DHT22;51601;51.356;12.458;2022-09-11T16:31:20;20.30;66.60
65034;DHT22;51601;51.356;12.458;2022-09-11T16:35:34;20.20;66.50
65034;DHT22;51601;51.356;12.458;2022-09-11T16:39:48;20.00;66.60
65034;DHT22;51601;51.356;12.458;2022-09-11T16:44:04;19.80;66.90
65034;DHT22;51601;51.356;12.458;2022-09-11T16:48:19;19.70;67.30
65034;DHT22;51601;51.356;12.458;2022-09-11T16:52:33;19.60;67.50
65034;DHT22;51601;51.356;12.458;2022-09-11T16:56:51;19.60;68.30
65034;DHT22;51601;51.356;12.458;2022-09-11T17:01:13;19.70;68.50
65034;DHT22;51601;51.356;12.458;2022-09-11T17:05:27;19.80;68.00
65034;DHT22;51601;51.356;12.458;2022-09-11T17:09:45;19.70;67.70
65034;DHT22;51601;51.356;12.458;2022-09-11T17:14:00;19.60;67.80
65034;DHT22;51601;51.356;12.458;2022-09-11T17:18:27;19.50;68.10
65034;DHT22;51601;51.356;12.458;2022-09-11T17:22:59;19.30;68.40
65034;DHT22;51601;51.356;12.458;2022-09-11T17:27:23;19.20;69.00
65034;DHT22;51601;51.356;12.458;2022-09-11T17:31:49;19.00;69.50
65034;DHT22;51601;51.356;12.458;2022-09-11T17:36:32;18.90;69.90
65034;DHT22;51601;51.356;12.458;2022-09-11T17:40:46;18.80;70.40
65034;DHT22;51601;51.356;12.458;2022-09-11T17:45:01;18.70;70.80
65034;DHT22;51601;51.356;12.458;2022-09-11T17:49:18;18.70;71.30
65034;DHT22;51601;51.356;12.458;2022-09-11T17:53:42;18.60;71.80
65034;DHT22;51601;51.356;12.458;2022-09-11T17:57:57;18.50;72.10
65034;DHT22;51601;51.356;12.458;2022-09-11T18:06:52;18.50;72.60
65034;DHT22;51601;51.356;12.458;2022-09-11T18:11:15;18.40;72.90
65034;DHT22;51601;51.356;12.458;2022-09-11T18:15:30;18.40;73.10
65034;DHT22;51601;51.356;12.458;2022-09-11T18:19:44;18.40;73.90
65034;DHT22;51601;51.356;12.458;2022-09-11T18:24:15;18.40;73.40
65034;DHT22;51601;51.356;12.458;2022-09-11T18:28:35;18.40;74.50
65034;DHT22;51601;51.356;12.458;2022-09-11T18:32:53;18.30;73.70
65034;DHT22;51601;51.356;12.458;2022-09-11T18:37:10;18.30;73.90
65034;DHT22;51601;51.356;12.458;2022-09-11T18:41:32;18.20;74.00
65034;DHT22;51601;51.356;12.458;2022-09-11T18:45:51;18.00;74.30
65034;DHT22;51601;51.356;12.458;2022-09-11T18:50:08;18.00;75.00
65034;DHT22;51601;51.356;12.458;2022-09-11T18:54:22;17.90;75.60
65034;DHT22;51601;51.356;12.458;2022-09-11T18:58:40;17.80;76.20
65034;DHT22;51601;51.356;12.458;2022-09-11T19:02:55;17.70;76.30
65034;DHT22;51601;51.356;12.458;2022-09-11T19:07:12;17.60;76.30
65034;DHT22;51601;51.356;12.458;2022-09-11T19:11:28;17.50;76.50
65034;DHT22;51601;51.356;12.458;2022-09-11T19:15:53;17.40;76.80
65034;DHT22;51601;51.356;12.458;2022-09-11T19:20:09;17.20;77.80
65034;DHT22;51601;51.356;12.458;2022-09-11T19:24:23;17.10;78.40
65034;DHT22;51601;51.356;12.458;2022-09-11T19:28:41;17.00;78.90
65034;DHT22;51601;51.356;12.458;2022-09-11T19:32:55;16.80;79.10
65034;DHT22;51601;51.356;12.458;2022-09-11T19:37:10;16.70;79.90
65034;DHT22;51601;51.356;12.458;2022-09-11T19:41:28;16.70;80.90
65034;DHT22;51601;51.356;12.458;2022-09-11T19:45:42;16.60;81.10
65034;DHT22;51601;51.356;12.458;2022-09-11T19:49:55;16.40;81.40
65034;DHT22;51601;51.356;12.458;2022-09-11T19:54:13;16.40;82.30
65034;DHT22;51601;51.356;12.458;2022-09-11T19:58:28;16.30;83.00
65034;DHT22;51601;51.356;12.458;2022-09-11T20:02:43;16.30;83.60
65034;DHT22;51601;51.356;12.458;2022-09-11T20:06:57;16.20;84.00
65034;DHT22;51601;51.356;12.458;2022-09-11T20:11:14;16.10;84.30
65034;DHT22;51601;51.356;12.458;2022-09-11T20:15:29;16.10;84.80
65034;DHT22;51601;51.356;12.458;2022-09-11T20:19:43;16.00;85.00
65034;DHT22;51601;51.356;12.458;2022-09-11T20:23:57;15.90;85.30
65034;DHT22;51601;51.356;12.458;2022-09-11T20:28:13;15.90;85.90
65034;DHT22;51601;51.356;12.458;2022-09-11T20:32:35;15.80;86.30
65034;DHT22;51601;51.356;12.458;2022-09-11T20:36:49;15.70;87.20
65034;DHT22;51601;51.356;12.458;2022-09-11T20:41:07;15.70;87.80
65034;DHT22;51601;51.356;12.458;2022-09-11T20:45:23;15.60;88.30
65034;DHT22;51601;51.356;12.458;2022-09-11T20:49:40;15.60;88.60
65034;DHT22;51601;51.356;12.458;2022-09-11T20:53:55;15.60;89.30
65034;DHT22;51601;51.356;12.458;2022-09-11T20:58:09;15.60;90.00
65034;DHT22;51601;51.356;12.458;2022-09-11T21:02:25;15.70;90.20
65034;DHT22;51601;51.356;12.458;2022-09-11T21:06:39;15.80;90.30
65034;DHT22;51601;51.356;12.458;2022-09-11T21:11:00;15.90;90.30
65034;DHT22;51601;51.356;12.458;2022-09-11T21:15:16;15.90;90.30
65034;DHT22;51601;51.356;12.458;2022-09-11T21:19:32;16.00;90.40
65034;DHT22;51601;51.356;12.458;2022-09-11T21:23:52;16.10;90.50
65034;DHT22;51601;51.356;12.458;2022-09-11T21:28:12;16.20;90.50
65034;DHT22;51601;51.356;12.458;2022-09-11T21:32:25;16.30;90.50
65034;DHT22;51601;51.356;12.458;2022-09-11T21:36:44;16.40;90.40
65034;DHT22;51601;51.356;12.458;2022-09-11T21:41:09;16.40;90.30
65034;DHT22;51601;51.356;12.458;2022-09-11T21:45:24;16.40;90.10
65034;DHT22;51601;51.356;12.458;2022-09-11T21:49:38;16.40;90.10
65034;DHT22;51601;51.356;12.458;2022-09-11T21:53:55;16.40;90.20
65034;DHT22;51601;51.356;12.458;2022-09-11T21:58:16;16.40;90.20
65034;DHT22;51601;51.356;12.458;2022-09-11T22:02:34;16.40;90.20
65034;DHT22;51601;51.356;12.458;2022-09-11T22:06:47;16.30;90.10
65034;DHT22;51601;51.356;12.458;2022-09-11T22:11:03;16.30;90.10
65034;DHT22;51601;51.356;12.458;2022-09-11T22:15:17;16.30;90.20
65034;DHT22;51601;51.356;12.458;2022-09-11T22:19:31;16.20;90.00
65034;DHT22;51601;51.356;12.458;2022-09-11T22:23:44;16.20;90.00
65034;DHT22;51601;51.356;12.458;2022-09-11T22:28:00;16.00;90.10
65034;DHT22;51601;51.356;12.458;2022-09-11T22:32:13;15.90;90.20
65034;DHT22;51601;51.356;12.458;2022-09-11T22:36:28;15.90;90.40
65034;DHT22;51601;51.356;12.458;2022-09-11T22:40:42;15.80;90.80
65034;DHT22;51601;51.356;12.458;2022-09-11T22:44:57;15.80;91.00
65034;DHT22;51601;51.356;12.458;2022-09-11T22:49:11;15.80;91.00
65034;DHT22;51601;51.356;12.458;2022-09-11T22:53:26;15.90;91.00
65034;DHT22;51601;51.356;12.458;2022-09-11T22:57:40;16.00;91.00
65034;DHT22;51601;51.356;12.458;2022-09-11T23:01:55;16.00;91.00
65034;DHT22;51601;51.356;12.458;2022-09-11T23:06:09;16.10;91.00
65034;DHT22;51601;51.356;12.458;2022-09-11T23:10:41;16.10;90.90
65034;DHT22;51601;51.356;12.458;2022-09-11T23:14:55;16.20;90.70
65034;DHT22;51601;51.356;12.458;2022-09-11T23:19:12;16.20;90.60
65034;DHT22;51601;51.356;12.458;2022-09-11T23:23:26;16.30;90.40
65034;DHT22;51601;51.356;12.458;2022-09-11T23:27:40;16.30;90.20
65034;DHT22;51601;51.356;12.458;2022-09-11T23:31:55;16.40;90.10
65034;DHT22;51601;51.356;12.458;2022-09-11T23:36:12;16.30;89.90
65034;DHT22;51601;51.356;12.458;2022-09-11T23:40:26;16.30;89.70
65034;DHT22;51601;51.356;12.458;2022-09-11T23:44:44;16.30;89.60
65034;DHT22;51601;51.356;12.458;2022-09-11T23:48:58;16.20;89.70
65034;DHT22;51601;51.356;12.458;2022-09-11T23:53:13;16.20;89.70
65034;DHT22;51601;51.356;12.458;2022-09-11T23:57:27;16.20;89.60
